Terminal Aerodrome Forecast
Issued by NWS

Home | Current Version | Previous Version | Graphics & Text | Print | Product List | Glossary On
Versions: 1 2 3 4 5 6 7 8 9 10 11 12 13 14 15 16 17
000
FTUS43 KBIS 250700 AAA
TAFDIK
TAF AMD
KDIK 250745Z 2508/2606 05006KT 5SM -SN BKN003 OVC040
      TEMPO 2508/2512 2SM -SN BR SCT003 OVC035
     FM251200 02015KT P6SM -SN SCT004 OVC015
     FM251900 35013KT P6SM SCT035 BKN100
     FM252200 33010KT P6SM SCT100=

USA.gov is the U.S. government's official web portal to all federal, state and local government web resources and services.